Time;durP1;ratioP1;P1;durP2;ratioP2;P2;SDS_P1;SDS_P2;PMS_P1;PMS_P2;Temp;Humidity;BMP_temperature;BMP_pressure;BME280_temperature;BME280_humidity;BME280_pressure;Samples;Min_cycle;Max_cycle;Signal;HPM_P1;HPM_P2
2021/09/18 00:00:15;;;;;;;11.15;8.30;;;;;;;;;;5020404;28;20432;-56
2021/09/18 00:02:40;;;;;;;12.10;7.70;;;;;;;;;;5024544;28;20040;-57
2021/09/18 00:05:06;;;;;;;9.40;7.05;;;;;;;;;;5020154;28;20092;-57
2021/09/18 00:07:32;;;;;;;10.95;7.50;;;;;;;;;;5015720;28;20033;-56
2021/09/18 00:09:58;;;;;;;10.02;7.28;;;;;;;;;;5024282;28;20416;-57
2021/09/18 00:12:24;;;;;;;9.80;7.32;;;;;;;;;;5023148;28;20026;-58
2021/09/18 00:14:49;;;;;;;11.65;7.28;;;;;;;;;;5017534;28;20134;-56
2021/09/18 00:17:15;;;;;;;12.38;6.78;;;;;;;;;;5020603;28;20029;-56
2021/09/18 00:19:40;;;;;;;10.68;6.80;;;;;;;;;;5013254;28;20123;-57
2021/09/18 00:22:06;;;;;;;8.98;6.57;;;;;;;;;;5018852;28;20032;-57
2021/09/18 00:24:31;;;;;;;12.60;7.15;;;;;;;;;;5017500;28;20022;-56
2021/09/18 00:26:57;;;;;;;23.42;8.43;;;;;;;;;;5017096;28;20562;-56
2021/09/18 00:29:22;;;;;;;19.92;7.95;;;;;;;;;;5019553;28;20442;-57
2021/09/18 00:31:48;;;;;;;11.00;6.80;;;;;;;;;;5018270;28;20025;-57
2021/09/18 00:34:13;;;;;;;10.65;7.03;;;;;;;;;;5014363;28;20018;-56
2021/09/18 00:36:39;;;;;;;12.80;7.00;;;;;;;;;;5011615;28;20112;-57
2021/09/18 00:39:04;;;;;;;9.10;6.63;;;;;;;;;;5015109;28;20052;-56
2021/09/18 00:41:30;;;;;;;13.85;7.03;;;;;;;;;;5021328;28;20034;-57
2021/09/18 00:43:57;;;;;;;13.27;8.13;;;;;;;;;;5015133;28;20079;-57
2021/09/18 00:46:23;;;;;;;12.90;7.13;;;;;;;;;;5016769;28;20108;-56
2021/09/18 00:48:49;;;;;;;14.77;7.53;;;;;;;;;;5017371;28;20060;-57
2021/09/18 00:51:17;;;;;;;14.50;7.85;;;;;;;;;;5021823;28;20108;-56
2021/09/18 00:53:43;;;;;;;10.45;7.15;;;;;;;;;;5019281;28;20450;-57
2021/09/18 00:56:11;;;;;;;10.18;6.80;;;;;;;;;;5017545;28;20108;-56
2021/09/18 00:58:36;;;;;;;11.07;6.40;;;;;;;;;;5014727;28;20068;-57
2021/09/18 01:01:02;;;;;;;9.80;6.38;;;;;;;;;;5016074;28;20105;-57
2021/09/18 01:03:28;;;;;;;9.63;6.78;;;;;;;;;;5011947;28;20172;-57
2021/09/18 01:05:57;;;;;;;12.63;7.00;;;;;;;;;;5016084;28;20112;-56
2021/09/18 01:08:24;;;;;;;10.40;7.18;;;;;;;;;;5018301;28;20041;-56
2021/09/18 01:10:50;;;;;;;12.45;6.88;;;;;;;;;;5017839;28;20032;-57
2021/09/18 01:13:18;;;;;;;12.10;7.22;;;;;;;;;;5014519;28;20026;-57
2021/09/18 01:15:44;;;;;;;11.70;7.35;;;;;;;;;;5022291;28;20360;-56
2021/09/18 01:18:10;;;;;;;11.77;7.50;;;;;;;;;;5014534;28;20029;-57
2021/09/18 01:20:37;;;;;;;11.25;6.75;;;;;;;;;;5021644;28;20034;-57
2021/09/18 01:23:05;;;;;;;13.05;6.63;;;;;;;;;;5020780;28;20035;-57
2021/09/18 01:25:33;;;;;;;11.18;7.05;;;;;;;;;;5022590;28;20514;-57
2021/09/18 01:27:58;;;;;;;10.00;6.55;;;;;;;;;;5022507;28;20025;-56
2021/09/18 01:30:27;;;;;;;10.57;6.60;;;;;;;;;;5017310;28;20447;-57
2021/09/18 01:32:54;;;;;;;12.27;6.35;;;;;;;;;;5012948;28;20065;-56
2021/09/18 01:35:19;;;;;;;8.90;6.00;;;;;;;;;;5011129;28;20033;-56
2021/09/18 01:37:48;;;;;;;9.90;6.55;;;;;;;;;;5022959;28;20032;-56
2021/09/18 01:40:25;;;;;;;10.68;6.60;;;;;;;;;;5018997;28;20056;-56
2021/09/18 01:42:52;;;;;;;9.70;6.15;;;;;;;;;;5015506;28;20027;-56
2021/09/18 01:45:18;;;;;;;11.15;6.50;;;;;;;;;;5018530;28;20113;-56
2021/09/18 01:47:50;;;;;;;11.50;5.90;;;;;;;;;;5018947;28;20041;-56
2021/09/18 01:50:29;;;;;;;10.13;6.53;;;;;;;;;;5012043;28;20119;-56
2021/09/18 01:53:00;;;;;;;9.30;6.05;;;;;;;;;;5019729;28;20041;-57
2021/09/18 01:55:26;;;;;;;12.07;6.93;;;;;;;;;;5021343;28;20046;-58
2021/09/18 01:57:54;;;;;;;10.40;6.70;;;;;;;;;;5023656;28;20018;-57
2021/09/18 02:00:20;;;;;;;9.32;5.78;;;;;;;;;;5024144;28;20033;-57
2021/09/18 02:02:46;;;;;;;8.32;6.18;;;;;;;;;;5015538;28;20408;-58
2021/09/18 02:05:13;;;;;;;10.63;6.35;;;;;;;;;;5017938;28;20156;-58
2021/09/18 02:07:39;;;;;;;8.05;5.47;;;;;;;;;;5020698;28;20029;-58
2021/09/18 02:10:07;;;;;;;10.82;5.80;;;;;;;;;;5024045;28;20068;-57
2021/09/18 02:12:33;;;;;;;15.10;6.93;;;;;;;;;;5021549;28;20033;-58
2021/09/18 02:14:58;;;;;;;9.65;5.50;;;;;;;;;;5020462;28;20032;-57
2021/09/18 02:17:24;;;;;;;10.13;6.15;;;;;;;;;;5022867;28;20025;-58
2021/09/18 02:19:49;;;;;;;8.82;5.65;;;;;;;;;;5020479;28;20021;-58
2021/09/18 02:22:15;;;;;;;9.93;5.88;;;;;;;;;;5020024;28;20124;-57
2021/09/18 02:24:40;;;;;;;8.38;5.43;;;;;;;;;;5018811;28;20574;-57
2021/09/18 02:27:05;;;;;;;10.73;5.65;;;;;;;;;;5020804;28;20040;-57
2021/09/18 02:29:31;;;;;;;9.13;6.05;;;;;;;;;;5022953;28;20048;-59
2021/09/18 02:31:56;;;;;;;10.05;6.10;;;;;;;;;;5023974;28;20028;-57
2021/09/18 02:34:22;;;;;;;9.70;5.95;;;;;;;;;;5019511;28;20497;-57
2021/09/18 02:36:47;;;;;;;7.45;5.60;;;;;;;;;;5022482;28;20285;-57
2021/09/18 02:39:12;;;;;;;10.43;5.93;;;;;;;;;;5024738;28;20097;-57
2021/09/18 02:41:38;;;;;;;8.27;5.60;;;;;;;;;;5017345;28;20106;-58
2021/09/18 02:44:03;;;;;;;8.90;6.05;;;;;;;;;;5020327;28;20052;-57
2021/09/18 02:46:29;;;;;;;8.65;5.93;;;;;;;;;;5022071;28;20072;-58
2021/09/18 02:48:55;;;;;;;8.75;6.05;;;;;;;;;;5019885;28;20058;-57
2021/09/18 02:51:20;;;;;;;8.07;5.65;;;;;;;;;;5021708;28;20460;-57
2021/09/18 02:53:45;;;;;;;11.45;5.55;;;;;;;;;;5013595;28;20056;-57
2021/09/18 02:56:11;;;;;;;8.80;5.63;;;;;;;;;;5016807;28;20036;-57
2021/09/18 02:58:36;;;;;;;12.82;5.85;;;;;;;;;;5021275;28;20151;-57
2021/09/18 03:01:02;;;;;;;10.50;5.80;;;;;;;;;;5021570;28;20030;-57
2021/09/18 03:03:27;;;;;;;9.80;6.40;;;;;;;;;;5022486;28;20273;-57
2021/09/18 03:05:54;;;;;;;9.45;6.35;;;;;;;;;;5017864;28;20542;-57
2021/09/18 03:08:19;;;;;;;9.90;6.43;;;;;;;;;;5025582;28;20191;-57
2021/09/18 03:10:45;;;;;;;9.57;6.13;;;;;;;;;;5020103;28;20548;-58
2021/09/18 03:13:10;;;;;;;9.30;5.97;;;;;;;;;;5026553;28;20052;-57
2021/09/18 03:15:35;;;;;;;8.93;6.15;;;;;;;;;;5026772;28;20530;-57
2021/09/18 03:18:01;;;;;;;8.90;6.10;;;;;;;;;;5019152;28;20040;-57
2021/09/18 03:20:26;;;;;;;10.98;6.55;;;;;;;;;;5016406;28;20030;-58
2021/09/18 03:22:52;;;;;;;9.75;6.47;;;;;;;;;;5017820;28;20082;-57
2021/09/18 03:25:17;;;;;;;10.88;6.97;;;;;;;;;;5016911;28;20029;-57
2021/09/18 03:27:42;;;;;;;11.25;7.03;;;;;;;;;;5018867;28;20034;-57
2021/09/18 03:30:08;;;;;;;10.50;6.20;;;;;;;;;;5017830;28;20025;-58
2021/09/18 03:32:34;;;;;;;11.45;6.43;;;;;;;;;;5022064;28;20372;-58
2021/09/18 03:34:59;;;;;;;10.23;6.93;;;;;;;;;;5020478;28;20029;-57
2021/09/18 03:37:25;;;;;;;13.77;6.80;;;;;;;;;;5019449;28;20065;-59
2021/09/18 03:39:50;;;;;;;9.15;6.32;;;;;;;;;;5030261;28;20480;-57
2021/09/18 03:42:16;;;;;;;12.00;6.82;;;;;;;;;;5021025;28;20049;-57
2021/09/18 03:44:41;;;;;;;12.02;7.72;;;;;;;;;;5014020;28;20049;-58
2021/09/18 03:47:07;;;;;;;11.45;6.47;;;;;;;;;;5017296;28;20496;-57
2021/09/18 03:49:32;;;;;;;10.32;6.30;;;;;;;;;;5022640;28;20048;-57
2021/09/18 03:51:58;;;;;;;10.68;6.57;;;;;;;;;;5017345;28;20029;-57
2021/09/18 03:54:23;;;;;;;9.63;6.25;;;;;;;;;;5020851;28;20022;-57
2021/09/18 03:56:50;;;;;;;9.38;5.90;;;;;;;;;;5020605;28;20031;-57
2021/09/18 03:59:16;;;;;;;13.50;7.20;;;;;;;;;;5018523;28;20520;-57
2021/09/18 04:01:41;;;;;;;9.82;6.95;;;;;;;;;;5021884;28;20169;-58
2021/09/18 04:04:07;;;;;;;12.65;7.53;;;;;;;;;;5015316;28;20018;-57
2021/09/18 04:06:32;;;;;;;13.48;6.57;;;;;;;;;;5015230;28;20022;-57
2021/09/18 04:08:58;;;;;;;10.35;6.72;;;;;;;;;;5017175;28;20061;-57
2021/09/18 04:11:23;;;;;;;11.85;6.70;;;;;;;;;;5024262;28;20059;-57
2021/09/18 04:13:51;;;;;;;9.32;6.70;;;;;;;;;;5019564;28;20075;-57
2021/09/18 04:16:18;;;;;;;11.38;6.20;;;;;;;;;;5014557;28;20021;-57
2021/09/18 04:18:43;;;;;;;9.77;6.20;;;;;;;;;;5020867;28;20511;-57
2021/09/18 04:21:09;;;;;;;10.20;6.25;;;;;;;;;;5022176;28;20029;-57
2021/09/18 04:23:34;;;;;;;9.77;6.40;;;;;;;;;;5017124;28;20064;-57
2021/09/18 04:25:59;;;;;;;10.18;6.43;;;;;;;;;;5022770;28;20033;-57
2021/09/18 04:28:25;;;;;;;12.35;7.03;;;;;;;;;;5023466;28;20037;-59
2021/09/18 04:30:50;;;;;;;12.18;6.82;;;;;;;;;;5021032;28;20026;-57
2021/09/18 04:33:15;;;;;;;11.13;7.07;;;;;;;;;;5021592;28;20063;-57
2021/09/18 04:35:41;;;;;;;11.82;6.07;;;;;;;;;;5023873;28;20033;-57
2021/09/18 04:38:07;;;;;;;11.63;6.75;;;;;;;;;;5017526;28;20026;-57
2021/09/18 04:40:32;;;;;;;9.68;6.15;;;;;;;;;;5021869;28;20117;-57
2021/09/18 04:42:57;;;;;;;10.27;6.22;;;;;;;;;;5016496;28;20025;-57
2021/09/18 04:45:23;;;;;;;12.65;6.85;;;;;;;;;;5016589;28;20100;-57
2021/09/18 04:47:48;;;;;;;12.68;6.93;;;;;;;;;;5021092;28;20029;-57
2021/09/18 04:50:14;;;;;;;12.30;7.45;;;;;;;;;;5024278;28;20379;-57
2021/09/18 04:52:39;;;;;;;13.73;7.75;;;;;;;;;;5020670;28;20095;-57
2021/09/18 04:55:05;;;;;;;14.13;8.02;;;;;;;;;;5018326;28;20107;-57
2021/09/18 04:57:31;;;;;;;12.27;7.95;;;;;;;;;;5024733;28;20064;-57
2021/09/18 04:59:56;;;;;;;11.68;7.50;;;;;;;;;;5018237;28;20451;-57
2021/09/18 05:02:22;;;;;;;11.63;6.55;;;;;;;;;;5020533;28;20560;-57
2021/09/18 05:04:47;;;;;;;12.02;7.00;;;;;;;;;;5021036;28;20073;-57
2021/09/18 05:07:13;;;;;;;12.98;8.10;;;;;;;;;;5014611;28;20037;-57
2021/09/18 05:09:38;;;;;;;19.63;9.52;;;;;;;;;;5020899;28;20033;-57
2021/09/18 05:12:03;;;;;;;27.13;10.70;;;;;;;;;;5015032;28;20480;-57
2021/09/18 05:14:29;;;;;;;29.40;13.50;;;;;;;;;;5016501;28;20064;-57
2021/09/18 05:16:54;;;;;;;29.10;13.93;;;;;;;;;;5015903;28;20038;-57
2021/09/18 05:19:20;;;;;;;24.02;11.80;;;;;;;;;;5012747;28;20030;-57
2021/09/18 05:21:45;;;;;;;18.80;10.88;;;;;;;;;;5022301;28;20499;-56
2021/09/18 05:24:11;;;;;;;22.42;12.35;;;;;;;;;;5018361;28;20107;-59
2021/09/18 05:26:36;;;;;;;22.55;12.05;;;;;;;;;;5015765;28;20049;-56
2021/09/18 05:29:02;;;;;;;26.52;13.45;;;;;;;;;;5019946;28;20030;-59
2021/09/18 05:31:27;;;;;;;23.63;12.18;;;;;;;;;;5024574;28;20021;-59
2021/09/18 05:33:52;;;;;;;18.50;10.82;;;;;;;;;;5023229;28;20029;-56
2021/09/18 05:36:18;;;;;;;17.83;9.45;;;;;;;;;;5026115;28;20029;-57
2021/09/18 05:38:43;;;;;;;17.73;10.10;;;;;;;;;;5022296;28;20025;-58
2021/09/18 05:41:09;;;;;;;18.83;10.57;;;;;;;;;;5023000;28;20492;-59
2021/09/18 05:43:34;;;;;;;27.73;10.63;;;;;;;;;;5019949;28;20025;-54
2021/09/18 05:45:59;;;;;;;23.45;10.95;;;;;;;;;;5027959;28;20037;-55
2021/09/18 05:48:25;;;;;;;33.90;11.98;;;;;;;;;;5027611;28;20044;-59
2021/09/18 05:50:50;;;;;;;21.55;10.82;;;;;;;;;;5019659;28;20103;-57
2021/09/18 05:53:16;;;;;;;21.17;12.20;;;;;;;;;;5024015;28;20044;-57
2021/09/18 05:55:41;;;;;;;18.90;10.52;;;;;;;;;;5019071;28;20466;-58
2021/09/18 05:58:06;;;;;;;22.92;11.93;;;;;;;;;;5025491;28;20026;-57
2021/09/18 06:00:32;;;;;;;21.58;11.18;;;;;;;;;;5023840;28;20033;-57
2021/09/18 06:02:58;;;;;;;17.90;10.52;;;;;;;;;;5026480;28;20108;-57
2021/09/18 06:05:23;;;;;;;17.90;10.68;;;;;;;;;;5016915;28;20092;-58
2021/09/18 06:07:49;;;;;;;25.30;10.52;;;;;;;;;;5020652;28;20059;-55
2021/09/18 06:10:14;;;;;;;25.45;11.52;;;;;;;;;;5023446;28;20309;-55
2021/09/18 06:12:39;;;;;;;22.83;9.70;;;;;;;;;;5023017;28;20033;-55
2021/09/18 06:15:06;;;;;;;17.23;9.85;;;;;;;;;;5014155;28;20179;-56
2021/09/18 06:17:31;;;;;;;17.15;9.80;;;;;;;;;;5021721;28;20056;-56
2021/09/18 06:19:57;;;;;;;17.23;10.30;;;;;;;;;;5021071;28;20053;-57
2021/09/18 06:22:22;;;;;;;14.80;9.00;;;;;;;;;;5019527;28;20032;-57
2021/09/18 06:24:48;;;;;;;17.42;9.95;;;;;;;;;;5021594;28;21490;-57
2021/09/18 06:27:13;;;;;;;17.27;10.10;;;;;;;;;;5024343;28;20037;-57
2021/09/18 06:29:38;;;;;;;17.15;10.23;;;;;;;;;;5019651;28;20447;-56
2021/09/18 06:32:07;;;;;;;17.48;10.65;;;;;;;;;;5023982;28;20474;-56
2021/09/18 06:34:37;;;;;;;20.03;10.90;;;;;;;;;;5013656;28;20033;-56
2021/09/18 06:37:04;;;;;;;16.45;9.98;;;;;;;;;;5013341;28;20412;-56
2021/09/18 06:39:29;;;;;;;21.38;11.35;;;;;;;;;;5018265;28;20067;-57
2021/09/18 06:41:54;;;;;;;40.55;19.42;;;;;;;;;;5025839;28;20029;-55
2021/09/18 06:44:20;;;;;;;42.53;18.85;;;;;;;;;;5015091;28;20116;-56
2021/09/18 06:46:45;;;;;;;24.08;12.82;;;;;;;;;;5021539;28;20396;-56
2021/09/18 06:49:11;;;;;;;19.77;10.45;;;;;;;;;;5021862;28;20037;-56
2021/09/18 06:51:36;;;;;;;16.77;10.23;;;;;;;;;;5020525;28;20496;-56
2021/09/18 06:54:02;;;;;;;17.58;9.95;;;;;;;;;;5020961;28;20087;-56
2021/09/18 06:56:27;;;;;;;17.88;10.15;;;;;;;;;;5023171;28;20063;-57
2021/09/18 06:58:55;;;;;;;18.33;10.75;;;;;;;;;;5023244;28;20443;-57
2021/09/18 07:01:21;;;;;;;18.33;10.20;;;;;;;;;;5022361;28;20471;-56
2021/09/18 07:03:47;;;;;;;22.80;10.65;;;;;;;;;;5017904;28;20108;-57
2021/09/18 07:06:12;;;;;;;23.15;12.48;;;;;;;;;;5021677;28;20476;-57
2021/09/18 07:08:37;;;;;;;25.23;13.40;;;;;;;;;;5014085;28;20042;-57
2021/09/18 07:11:03;;;;;;;25.30;12.80;;;;;;;;;;5023978;28;20026;-56
2021/09/18 07:13:29;;;;;;;23.02;13.30;;;;;;;;;;5023139;28;20220;-57
2021/09/18 07:15:54;;;;;;;22.80;13.13;;;;;;;;;;5023169;28;20029;-56
2021/09/18 07:18:20;;;;;;;33.75;14.52;;;;;;;;;;5016587;28;20033;-56
2021/09/18 07:20:46;;;;;;;24.77;13.40;;;;;;;;;;5021122;28;20511;-57
2021/09/18 07:23:11;;;;;;;22.50;12.30;;;;;;;;;;5023340;28;20056;-57
2021/09/18 07:25:37;;;;;;;25.25;12.75;;;;;;;;;;5019091;28;20030;-56
2021/09/18 07:28:02;;;;;;;27.80;14.68;;;;;;;;;;5029030;28;20498;-56
2021/09/18 07:30:28;;;;;;;27.13;14.43;;;;;;;;;;5019101;28;20032;-57
2021/09/18 07:32:53;;;;;;;26.98;14.13;;;;;;;;;;5019740;28;20442;-56
2021/09/18 07:35:19;;;;;;;26.83;14.77;;;;;;;;;;5018694;28;20061;-57
2021/09/18 07:37:44;;;;;;;28.05;13.73;;;;;;;;;;5022085;28;20486;-57
2021/09/18 07:40:12;;;;;;;26.20;14.57;;;;;;;;;;5015703;28;20052;-57
2021/09/18 07:42:38;;;;;;;28.98;13.88;;;;;;;;;;5016047;28;20065;-57
2021/09/18 07:45:05;;;;;;;26.75;12.60;;;;;;;;;;5022415;28;20037;-57
2021/09/18 07:47:30;;;;;;;25.05;13.65;;;;;;;;;;5021110;28;20420;-57
2021/09/18 07:49:56;;;;;;;24.83;13.77;;;;;;;;;;5021908;28;20021;-57
2021/09/18 07:52:21;;;;;;;25.10;13.10;;;;;;;;;;5022066;28;20322;-57
2021/09/18 07:54:47;;;;;;;23.02;12.95;;;;;;;;;;5022923;28;20025;-57
2021/09/18 07:57:12;;;;;;;23.52;12.95;;;;;;;;;;5019153;28;20018;-56
2021/09/18 07:59:38;;;;;;;24.40;13.65;;;;;;;;;;5025105;28;20030;-56
2021/09/18 08:02:03;;;;;;;20.88;11.90;;;;;;;;;;5022794;28;20175;-56
2021/09/18 08:04:29;;;;;;;21.95;12.15;;;;;;;;;;5018372;28;20021;-56
2021/09/18 08:06:54;;;;;;;25.88;13.98;;;;;;;;;;5019481;28;20037;-57
2021/09/18 08:09:20;;;;;;;25.30;12.65;;;;;;;;;;5017254;28;20029;-56
2021/09/18 08:11:46;;;;;;;23.67;12.00;;;;;;;;;;5022707;28;20397;-57
2021/09/18 08:14:11;;;;;;;22.63;13.13;;;;;;;;;;5012669;28;20103;-57
2021/09/18 08:16:37;;;;;;;23.10;13.27;;;;;;;;;;5018807;28;20454;-57
2021/09/18 08:19:03;;;;;;;23.17;11.02;;;;;;;;;;5015233;28;20395;-56
2021/09/18 08:21:28;;;;;;;23.48;11.65;;;;;;;;;;5019678;28;20039;-57
2021/09/18 08:23:53;;;;;;;20.65;12.00;;;;;;;;;;5017096;28;20045;-57
2021/09/18 08:26:19;;;;;;;21.92;12.82;;;;;;;;;;5016863;28;20507;-57
2021/09/18 08:28:44;;;;;;;22.55;12.75;;;;;;;;;;5015952;28;20037;-57
2021/09/18 08:31:10;;;;;;;20.52;12.25;;;;;;;;;;5019633;28;20148;-57
2021/09/18 08:33:35;;;;;;;22.20;12.88;;;;;;;;;;5019025;28;20084;-58
2021/09/18 08:36:01;;;;;;;22.80;12.45;;;;;;;;;;5015870;28;20068;-57
2021/09/18 08:38:26;;;;;;;21.85;12.43;;;;;;;;;;5020747;28;20040;-58
2021/09/18 08:40:53;;;;;;;25.48;13.65;;;;;;;;;;5021848;28;20029;-57
2021/09/18 08:43:20;;;;;;;22.77;13.35;;;;;;;;;;5014610;28;20104;-57
2021/09/18 08:45:46;;;;;;;21.95;12.85;;;;;;;;;;5016258;28;20025;-57
2021/09/18 08:48:16;;;;;;;20.13;12.80;;;;;;;;;;5022599;28;20484;-56
2021/09/18 08:50:41;;;;;;;;;;;;;;;;;;5021894;28;20056;-57
2021/09/18 08:53:07;;;;;;;21.98;12.48;;;;;;;;;;5020493;28;19960;-57
2021/09/18 08:55:32;;;;;;;27.67;12.50;;;;;;;;;;5019538;28;20530;-57
2021/09/18 08:57:58;;;;;;;20.42;11.82;;;;;;;;;;5019365;28;20033;-58
2021/09/18 09:00:33;;;;;;;12.75;8.30;;;;;;;;;;5018301;28;20022;-57
2021/09/18 09:03:00;;;;;;;11.43;7.50;;;;;;;;;;5019988;28;20514;-57
2021/09/18 09:05:32;;;;;;;12.88;7.38;;;;;;;;;;5024956;28;20068;-57
2021/09/18 09:08:14;;;;;;;14.55;7.57;;;;;;;;;;5021215;28;20399;-55
2021/09/18 09:10:43;;;;;;;12.48;8.13;;;;;;;;;;5019093;28;20306;-58
2021/09/18 09:13:14;;;;;;;13.88;8.07;;;;;;;;;;5025400;28;20138;-57
2021/09/18 09:15:41;;;;;;;14.82;8.32;;;;;;;;;;5019682;28;20033;-57
2021/09/18 09:18:17;;;;;;;17.40;8.50;;;;;;;;;;5015948;28;20047;-57
2021/09/18 09:20:44;;;;;;;13.98;7.97;;;;;;;;;;5022477;28;20040;-57
2021/09/18 09:23:21;;;;;;;15.27;8.57;;;;;;;;;;5021628;28;20025;-57
2021/09/18 09:25:51;;;;;;;14.63;8.45;;;;;;;;;;5023391;28;20110;-57
2021/09/18 09:28:25;;;;;;;16.30;8.68;;;;;;;;;;5019140;28;20414;-57
2021/09/18 09:30:51;;;;;;;14.80;8.00;;;;;;;;;;5018957;28;20398;-57
2021/09/18 09:33:17;;;;;;;17.85;8.23;;;;;;;;;;5023720;28;20036;-55
2021/09/18 09:35:43;;;;;;;18.33;9.38;;;;;;;;;;5016012;28;20033;-56
2021/09/18 09:38:09;;;;;;;15.80;8.18;;;;;;;;;;5022594;28;20377;-56
2021/09/18 09:40:35;;;;;;;13.15;8.68;;;;;;;;;;5021281;28;20037;-56
2021/09/18 09:43:01;;;;;;;15.18;7.53;;;;;;;;;;5016475;28;20112;-56
2021/09/18 09:45:27;;;;;;;15.23;8.63;;;;;;;;;;5017170;28;20030;-57
2021/09/18 09:48:12;;;;;;;18.45;8.07;;;;;;;;;;5025218;28;20021;-58
2021/09/18 09:50:40;;;;;;;12.43;7.47;;;;;;;;;;5021578;28;20467;-58
2021/09/18 09:53:22;;;;;;;15.40;8.23;;;;;;;;;;5025277;28;20139;-57
2021/09/18 09:55:48;;;;;;;12.13;8.15;;;;;;;;;;5018841;28;20511;-59
2021/09/18 09:58:13;;;;;;;25.65;7.90;;;;;;;;;;5030081;28;20021;-58
2021/09/18 10:00:46;;;;;;;12.75;8.02;;;;;;;;;;5030042;28;20518;-57
2021/09/18 10:03:11;;;;;;;13.05;9.30;;;;;;;;;;5017131;28;20041;-58
2021/09/18 10:05:38;;;;;;;12.68;8.77;;;;;;;;;;5026047;28;20036;-58
2021/09/18 10:08:03;;;;;;;11.20;8.38;;;;;;;;;;5028455;28;20121;-58
2021/09/18 10:10:30;;;;;;;15.18;7.97;;;;;;;;;;5022634;28;20025;-59
2021/09/18 10:12:56;;;;;;;14.30;7.82;;;;;;;;;;5015477;28;20116;-58
2021/09/18 10:15:28;;;;;;;12.88;7.78;;;;;;;;;;5031352;28;20172;-58
2021/09/18 10:17:55;;;;;;;14.63;7.65;;;;;;;;;;5019316;28;20476;-59
2021/09/18 10:25:34;;;;;;;293.92;78.18;;;;;;;;;;5027202;28;20184;-57
2021/09/18 10:28:43;;;;;;;49.92;24.17;;;;;;;;;;5020306;28;20033;-57
2021/09/18 10:31:14;;;;;;;74.70;51.70;;;;;;;;;;5029619;28;20136;-58
2021/09/18 10:33:49;;;;;;;72.18;42.25;;;;;;;;;;5025708;28;20501;-56
2021/09/18 10:36:15;;;;;;;1713.28;858.80;;;;;;;;;;5026731;28;20036;-57
2021/09/18 10:38:44;;;;;;;142.13;82.50;;;;;;;;;;5023779;28;20025;-57
2021/09/18 10:41:12;;;;;;;56.92;35.22;;;;;;;;;;5021655;28;20022;-57
2021/09/18 10:43:44;;;;;;;22.75;15.30;;;;;;;;;;5021836;28;20620;-57
2021/09/18 10:46:31;;;;;;;29.30;16.75;;;;;;;;;;5020081;28;20064;-58
2021/09/18 10:48:57;;;;;;;39.92;21.27;;;;;;;;;;5017104;28;20108;-58
2021/09/18 10:51:37;;;;;;;15.57;9.63;;;;;;;;;;5023428;28;20117;-57
2021/09/18 10:54:23;;;;;;;18.23;11.30;;;;;;;;;;5022234;28;20029;-56
2021/09/18 10:57:01;;;;;;;22.85;13.50;;;;;;;;;;5022084;28;20056;-57
2021/09/18 10:59:41;;;;;;;15.43;11.48;;;;;;;;;;5020105;28;20067;-59
2021/09/18 11:02:32;;;;;;;17.05;9.85;;;;;;;;;;5020364;28;20045;-57
2021/09/18 11:04:59;;;;;;;24.20;16.70;;;;;;;;;;5015021;28;20101;-60
2021/09/18 11:07:52;;;;;;;36.40;25.38;;;;;;;;;;5012132;28;20022;-58
2021/09/18 11:10:20;;;;;;;13.40;9.50;;;;;;;;;;5017475;28;20052;-58
2021/09/18 11:13:07;;;;;;;17.48;11.85;;;;;;;;;;5023948;28;20088;-57
2021/09/18 11:15:47;;;;;;;10.93;8.05;;;;;;;;;;5018051;28;20026;-58
2021/09/18 11:18:41;;;;;;;12.15;9.30;;;;;;;;;;5021646;28;20017;-58
2021/09/18 11:21:10;;;;;;;9.77;6.65;;;;;;;;;;5013107;28;20068;-58
2021/09/18 11:23:46;;;;;;;9.63;6.73;;;;;;;;;;5016382;28;20026;-57
2021/09/18 11:26:38;;;;;;;10.93;7.20;;;;;;;;;;5015839;28;20268;-57
2021/09/18 11:29:29;;;;;;;9.30;6.13;;;;;;;;;;5019647;28;20040;-57
2021/09/18 11:31:56;;;;;;;9.68;7.13;;;;;;;;;;5027880;28;20028;-60
2021/09/18 11:34:24;;;;;;;9.38;5.22;;;;;;;;;;5017565;28;20096;-58
2021/09/18 11:36:50;;;;;;;7.00;5.97;;;;;;;;;;5019589;28;20046;-58
2021/09/18 11:39:16;;;;;;;9.02;6.35;;;;;;;;;;5020166;28;20026;-58
2021/09/18 11:41:41;;;;;;;9.30;6.22;;;;;;;;;;5016942;28;20516;-58
2021/09/18 11:44:11;;;;;;;7.65;5.90;;;;;;;;;;5017097;28;20106;-58
2021/09/18 11:46:37;;;;;;;7.28;5.65;;;;;;;;;;5022266;28;20105;-58
2021/09/18 11:49:04;;;;;;;7.15;5.88;;;;;;;;;;5021732;28;20391;-57
2021/09/18 11:51:30;;;;;;;15.77;8.65;;;;;;;;;;5019541;28;20485;-58
2021/09/18 11:54:03;;;;;;;13.85;6.63;;;;;;;;;;5023573;28;20080;-58
2021/09/18 11:56:29;;;;;;;12.10;5.45;;;;;;;;;;5022409;28;20093;-58
2021/09/18 11:58:54;;;;;;;11.55;6.78;;;;;;;;;;5015867;28;20484;-56
2021/09/18 12:01:20;;;;;;;10.55;5.88;;;;;;;;;;5015179;28;20394;-57
2021/09/18 12:03:46;;;;;;;7.30;5.68;;;;;;;;;;5019190;28;20037;-57
2021/09/18 12:06:14;;;;;;;12.45;5.25;;;;;;;;;;5018796;28;20038;-58
2021/09/18 12:08:41;;;;;;;8.25;5.72;;;;;;;;;;5013478;28;20091;-57
2021/09/18 12:11:06;;;;;;;8.65;5.32;;;;;;;;;;5021524;28;20496;-58
2021/09/18 12:13:32;;;;;;;8.43;5.10;;;;;;;;;;5017995;28;20029;-58
2021/09/18 12:16:03;;;;;;;10.02;5.07;;;;;;;;;;5019161;28;20030;-58
2021/09/18 12:18:35;;;;;;;5.97;4.97;;;;;;;;;;5013710;28;20083;-58
2021/09/18 12:21:05;;;;;;;7.25;4.88;;;;;;;;;;5018173;28;20436;-58
2021/09/18 12:23:32;;;;;;;7.95;4.93;;;;;;;;;;5011396;28;20459;-58
2021/09/18 12:26:01;;;;;;;5.20;4.35;;;;;;;;;;5018243;28;20554;-58
2021/09/18 12:28:28;;;;;;;20.15;11.98;;;;;;;;;;5020460;28;20030;-58
2021/09/18 12:30:54;;;;;;;17.95;11.63;;;;;;;;;;5019785;28;20029;-59
2021/09/18 12:33:33;;;;;;;6.30;4.88;;;;;;;;;;5017376;28;20033;-57
2021/09/18 12:36:06;;;;;;;;;;;;;;;;;;5016632;28;20456;-58
2021/09/18 12:38:32;;;;;;;7.97;4.43;;;;;;;;;;5013322;28;19959;-57
2021/09/18 12:41:04;;;;;;;5.60;4.15;;;;;;;;;;5019187;28;20123;-57
2021/09/18 12:43:30;;;;;;;7.05;4.88;;;;;;;;;;5017280;28;20025;-59
2021/09/18 12:46:22;;;;;;;9.25;4.13;;;;;;;;;;5019806;28;20032;-59
2021/09/18 12:49:02;;;;;;;6.78;4.03;;;;;;;;;;5019015;28;20081;-61
2021/09/18 12:51:30;;;;;;;4.85;3.90;;;;;;;;;;5020288;28;20463;-59
2021/09/18 12:53:57;;;;;;;5.28;4.10;;;;;;;;;;5017035;28;20057;-61
2021/09/18 12:56:28;;;;;;;4.65;3.85;;;;;;;;;;5019291;28;20440;-60
2021/09/18 12:59:06;;;;;;;5.20;3.55;;;;;;;;;;5017761;28;20022;-60
2021/09/18 13:01:37;;;;;;;3.95;3.55;;;;;;;;;;5014635;28;20022;-61
2021/09/18 13:04:04;;;;;;;4.00;3.50;;;;;;;;;;5020848;28;20116;-60
2021/09/18 13:06:30;;;;;;;5.80;4.13;;;;;;;;;;5017882;28;20265;-59
2021/09/18 13:08:59;;;;;;;8.43;3.72;;;;;;;;;;5014517;28;20057;-58
2021/09/18 13:11:28;;;;;;;6.60;4.28;;;;;;;;;;5019166;28;20053;-59
2021/09/18 13:13:55;;;;;;;7.00;4.13;;;;;;;;;;5020660;28;20622;-58
2021/09/18 13:16:22;;;;;;;5.45;4.20;;;;;;;;;;5017508;28;20360;-59
2021/09/18 13:19:20;;;;;;;5.35;4.05;;;;;;;;;;5022579;28;20026;-59
2021/09/18 13:21:46;;;;;;;13.82;4.32;;;;;;;;;;5039441;28;20484;-60
2021/09/18 13:24:11;;;;;;;9.60;5.00;;;;;;;;;;5018611;28;20049;-58
2021/09/18 13:26:36;;;;;;;6.57;4.45;;;;;;;;;;5022394;28;20458;-59
2021/09/18 13:29:02;;;;;;;4.65;3.90;;;;;;;;;;5013365;28;20022;-59
2021/09/18 13:31:29;;;;;;;6.93;4.50;;;;;;;;;;5015669;28;20515;-60
2021/09/18 13:33:55;;;;;;;5.28;4.28;;;;;;;;;;5018971;28;20025;-61
2021/09/18 13:36:20;;;;;;;7.68;4.38;;;;;;;;;;5012294;28;20048;-60
2021/09/18 13:38:46;;;;;;;7.60;4.65;;;;;;;;;;5020115;28;20041;-59
2021/09/18 13:41:11;;;;;;;5.03;4.03;;;;;;;;;;5023024;28;20444;-59
2021/09/18 13:43:37;;;;;;;6.38;4.72;;;;;;;;;;5016156;28;20121;-63
2021/09/18 13:46:02;;;;;;;4.65;3.95;;;;;;;;;;5022417;28;20041;-59
2021/09/18 13:48:28;;;;;;;5.82;3.63;;;;;;;;;;5017555;28;20046;-60
2021/09/18 13:50:53;;;;;;;4.57;4.05;;;;;;;;;;5021283;28;20088;-59
2021/09/18 13:53:19;;;;;;;6.72;4.30;;;;;;;;;;5025678;28;20025;-59
2021/09/18 13:55:45;;;;;;;5.10;3.92;;;;;;;;;;5020639;28;20036;-60
2021/09/18 13:58:10;;;;;;;6.03;3.97;;;;;;;;;;5021191;28;20429;-60
2021/09/18 14:00:36;;;;;;;6.10;4.70;;;;;;;;;;5021628;28;20025;-60
2021/09/18 14:03:03;;;;;;;8.98;4.63;;;;;;;;;;5027027;28;20060;-60
2021/09/18 14:05:29;;;;;;;6.57;3.65;;;;;;;;;;5013186;28;20096;-62
2021/09/18 14:07:54;;;;;;;5.78;4.53;;;;;;;;;;5021983;28;20037;-60
2021/09/18 14:10:20;;;;;;;9.05;3.95;;;;;;;;;;5022687;28;20037;-59
2021/09/18 14:12:45;;;;;;;8.88;4.03;;;;;;;;;;5018622;28;20499;-59
2021/09/18 14:15:11;;;;;;;4.45;3.85;;;;;;;;;;5013143;28;20083;-60
2021/09/18 14:17:37;;;;;;;5.15;3.60;;;;;;;;;;5020920;28;20036;-57
2021/09/18 14:20:03;;;;;;;6.25;3.85;;;;;;;;;;5025346;28;20037;-59
2021/09/18 14:22:29;;;;;;;4.70;3.65;;;;;;;;;;5016295;28;20029;-60
2021/09/18 14:24:54;;;;;;;3.70;3.40;;;;;;;;;;5020043;28;20017;-59
2021/09/18 14:27:20;;;;;;;4.10;3.45;;;;;;;;;;5026168;28;20034;-59
2021/09/18 14:29:45;;;;;;;4.22;3.50;;;;;;;;;;5025841;28;21003;-60
2021/09/18 14:32:11;;;;;;;5.53;3.38;;;;;;;;;;5019612;28;20033;-58
2021/09/18 14:34:36;;;;;;;4.38;3.40;;;;;;;;;;5017911;28;20029;-60
2021/09/18 14:37:03;;;;;;;10.35;7.47;;;;;;;;;;5017363;28;20025;-58